createdAt,value
2016-09-18T00:00:37.956Z,19.78
2016-09-18T00:01:37.591Z,19.8
2016-09-18T00:02:37.942Z,19.86
2016-09-18T00:03:37.908Z,19.85
2016-09-18T00:04:37.346Z,19.86
2016-09-18T00:05:37.603Z,19.8
2016-09-18T00:06:37.627Z,19.8
2016-09-18T00:07:37.504Z,19.81
2016-09-18T00:08:37.811Z,19.96
2016-09-18T00:09:37.483Z,20.1
2016-09-18T00:10:37.177Z,20.07
2016-09-18T00:11:37.455Z,20.07
2016-09-18T00:12:37.817Z,19.96
2016-09-18T00:13:37.419Z,19.92
2016-09-18T00:14:37.740Z,19.92
2016-09-18T00:15:37.406Z,19.83
2016-09-18T00:16:37.460Z,19.93
2016-09-18T00:17:37.686Z,19.86
2016-09-18T00:18:37.367Z,19.95
2016-09-18T00:19:37.703Z,19.81
2016-09-18T00:20:37.657Z,19.85
2016-09-18T00:21:37.314Z,19.95
2016-09-18T00:22:37.630Z,19.81
2016-09-18T00:23:37.613Z,19.8
2016-09-18T00:24:36.958Z,19.73
2016-09-18T00:25:37.586Z,19.7
2016-09-18T00:26:37.576Z,19.58
2016-09-18T00:27:37.234Z,19.52
2016-09-18T00:28:37.218Z,19.52
2016-09-18T00:29:37.520Z,19.67
2016-09-18T00:30:36.954Z,19.51
2016-09-18T00:31:37.504Z,19.59
2016-09-18T00:32:37.483Z,19.53
2016-09-18T00:33:37.466Z,19.66
2016-09-18T00:34:37.476Z,19.69
2016-09-18T00:35:37.435Z,19.69
2016-09-18T00:36:37.437Z,19.53
2016-09-18T00:37:37.419Z,19.52
2016-09-18T00:38:37.413Z,19.41
2016-09-18T00:39:37.071Z,19.41
2016-09-18T00:40:37.419Z,19.3
2016-09-18T00:41:37.109Z,19.46
2016-09-18T00:42:37.356Z,19.51
2016-09-18T00:43:37.333Z,19.41
2016-09-18T00:44:37.314Z,19.51
2016-09-18T00:45:37.038Z,19.49
2016-09-18T00:46:37.297Z,19.53
2016-09-18T00:47:37.057Z,19.48
2016-09-18T00:48:37.275Z,19.52
2016-09-18T00:49:37.253Z,19.52
2016-09-18T00:50:37.252Z,19.44
2016-09-18T00:51:37.221Z,19.51
2016-09-18T00:52:37.212Z,19.48
2016-09-18T00:53:37.189Z,19.51
2016-09-18T00:54:37.179Z,19.48
2016-09-18T00:55:36.849Z,19.46
2016-09-18T00:56:36.510Z,19.55
2016-09-18T00:57:36.493Z,19.51
2016-09-18T00:58:36.813Z,19.59
2016-09-18T00:59:36.489Z,19.52
2016-09-18T01:00:36.776Z,19.41
2016-09-18T01:01:36.456Z,19.44
2016-09-18T01:02:36.753Z,19.38
2016-09-18T01:03:36.730Z,19.41
2016-09-18T01:04:36.727Z,19.36
2016-09-18T01:05:36.719Z,19.44
2016-09-18T01:06:36.713Z,19.33
2016-09-18T01:07:37.011Z,19.22
2016-09-18T01:08:36.985Z,19.06
2016-09-18T01:09:36.663Z,19.12
2016-09-18T01:10:36.645Z,19.19
2016-09-18T01:11:36.942Z,19.16
2016-09-18T01:12:36.944Z,19.12
2016-09-18T01:13:36.916Z,19.07
2016-09-18T01:14:36.280Z,19.22
2016-09-18T01:15:36.575Z,19.33
2016-09-18T01:16:36.567Z,19.38
2016-09-18T01:17:36.862Z,19.31
2016-09-18T01:18:36.849Z,19.28
2016-09-18T01:19:36.846Z,19.58
2016-09-18T01:20:36.179Z,19.51
2016-09-18T01:21:36.486Z,19.48
2016-09-18T01:22:36.500Z,19.41
2016-09-18T01:23:36.776Z,19.4
2016-09-18T01:24:36.440Z,19.48
2016-09-18T01:25:36.439Z,19.23
2016-09-18T01:26:36.426Z,19.18
2016-09-18T01:27:36.741Z,19.18
2016-09-18T01:28:36.389Z,19.25
2016-09-18T01:29:36.696Z,19.34
2016-09-18T01:30:36.377Z,19.63
2016-09-18T01:31:36.347Z,19.51
2016-09-18T01:32:36.334Z,19.43
2016-09-18T01:33:36.321Z,19.48
2016-09-18T01:34:36.740Z,19.43
2016-09-18T01:35:36.610Z,19.53
2016-09-18T01:36:36.610Z,19.55
2016-09-18T01:37:36.586Z,19.51
2016-09-18T01:38:35.974Z,19.56
2016-09-18T01:39:35.926Z,19.31
2016-09-18T01:40:36.232Z,19.41
2016-09-18T01:41:36.533Z,19.76
2016-09-18T01:42:36.199Z,19.67
2016-09-18T01:43:36.509Z,19.58
2016-09-18T01:44:36.179Z,19.51
2016-09-18T01:45:36.483Z,19.61
2016-09-18T01:46:35.866Z,19.55
2016-09-18T01:47:36.152Z,19.43
2016-09-18T01:48:36.448Z,19.48
2016-09-18T01:49:36.440Z,19.31
2016-09-18T01:50:36.407Z,19.46
2016-09-18T01:51:36.405Z,19.78
2016-09-18T01:52:36.426Z,19.89
2016-09-18T01:53:36.050Z,19.61
2016-09-18T01:54:36.036Z,19.86
2016-09-18T01:55:36.026Z,20.17
2016-09-18T01:56:36.317Z,20.22
2016-09-18T01:57:35.991Z,20.2
2016-09-18T01:58:35.988Z,20.16
2016-09-18T01:59:36.288Z,19.91
2016-09-18T02:00:35.638Z,19.52
2016-09-18T02:01:35.721Z,19.56
2016-09-18T02:02:35.930Z,19.69
2016-09-18T02:03:35.915Z,19.49
2016-09-18T02:04:35.905Z,19.55
2016-09-18T02:05:35.935Z,19.38
2016-09-18T02:06:36.185Z,19.59
2016-09-18T02:07:35.846Z,19.81
2016-09-18T02:08:36.163Z,19.7
2016-09-18T02:09:35.504Z,20.29
2016-09-18T02:10:36.155Z,20.2
2016-09-18T02:11:35.800Z,19.96
2016-09-18T02:12:35.808Z,19.92
2016-09-18T02:13:35.813Z,19.71
2016-09-18T02:14:35.769Z,19.53
2016-09-18T02:15:35.742Z,19.51
2016-09-18T02:16:36.052Z,19.55
2016-09-18T02:17:35.731Z,19.56
2016-09-18T02:18:36.026Z,19.51
2016-09-18T02:19:35.744Z,19.55
2016-09-18T02:20:35.686Z,19.63
2016-09-18T02:21:35.676Z,19.76
2016-09-18T02:22:35.977Z,19.66
2016-09-18T02:23:35.949Z,19.67
2016-09-18T02:24:35.950Z,19.31
2016-09-18T02:25:35.939Z,19.46
2016-09-18T02:26:35.648Z,19.55
2016-09-18T02:27:35.918Z,19.62
2016-09-18T02:28:35.882Z,19.58
2016-09-18T02:29:35.245Z,19.67
2016-09-18T02:30:35.936Z,19.56
2016-09-18T02:31:35.849Z,19.52
2016-09-18T02:32:35.567Z,19.59
2016-09-18T02:33:35.807Z,19.77
2016-09-18T02:34:35.909Z,19.85
2016-09-18T02:35:35.150Z,19.7
2016-09-18T02:36:35.460Z,19.53
2016-09-18T02:37:35.466Z,19.46
2016-09-18T02:38:35.418Z,19.38
2016-09-18T02:39:35.475Z,20.04
2016-09-18T02:40:35.799Z,20.06
2016-09-18T02:41:35.719Z,20.17
2016-09-18T02:42:35.783Z,20.18
2016-09-18T02:43:35.355Z,20.03
2016-09-18T02:44:35.671Z,19.95
2016-09-18T02:45:35.657Z,19.76
2016-09-18T02:46:35.416Z,19.49
2016-09-18T02:47:35.629Z,19.61
2016-09-18T02:48:35.327Z,19.51
2016-09-18T02:49:35.274Z,19.37
2016-09-18T02:50:34.950Z,19.73
2016-09-18T02:51:35.246Z,19.62
2016-09-18T02:52:35.566Z,19.74
2016-09-18T02:53:35.554Z,19.71
2016-09-18T02:54:35.220Z,19.58
2016-09-18T02:55:35.190Z,19.91
2016-09-18T02:56:35.183Z,19.86
2016-09-18T02:57:35.169Z,19.7
2016-09-18T02:58:35.495Z,19.86
2016-09-18T02:59:34.810Z,19.88
2016-09-18T03:00:35.446Z,19.62
2016-09-18T03:01:35.133Z,19.81
2016-09-18T03:02:35.085Z,19.86
2016-09-18T03:03:35.081Z,19.73
2016-09-18T03:04:35.392Z,19.67
2016-09-18T03:05:35.059Z,19.48
2016-09-18T03:06:35.355Z,19.43
2016-09-18T03:07:35.390Z,19.41
2016-09-18T03:08:35.338Z,19.53
2016-09-18T03:09:34.685Z,19.41
2016-09-18T03:10:35.308Z,19.46
2016-09-18T03:11:35.290Z,19.4
2016-09-18T03:12:34.950Z,19.4
2016-09-18T03:13:34.938Z,19.4
2016-09-18T03:14:35.257Z,19.43
2016-09-18T03:15:35.295Z,19.38
2016-09-18T03:16:35.229Z,19.26
2016-09-18T03:17:35.248Z,19.26
2016-09-18T03:18:35.209Z,19.19
2016-09-18T03:19:35.190Z,19.16
2016-09-18T03:20:35.169Z,19.16
2016-09-18T03:21:34.859Z,19.04
2016-09-18T03:22:34.813Z,19.04
2016-09-18T03:23:35.127Z,19.04
2016-09-18T03:24:34.788Z,19.11
2016-09-18T03:25:35.097Z,19.08
2016-09-18T03:26:35.076Z,19.14
2016-09-18T03:27:34.757Z,19.22
2016-09-18T03:28:34.740Z,19.21
2016-09-18T03:29:34.727Z,19.22
2016-09-18T03:30:35.041Z,19.33
2016-09-18T03:31:34.682Z,19.4
2016-09-18T03:32:35.007Z,19.21
2016-09-18T03:33:34.983Z,19.19
2016-09-18T03:34:34.976Z,19.22
2016-09-18T03:35:34.645Z,19.19
2016-09-18T03:36:34.944Z,19.23
2016-09-18T03:37:34.611Z,19.15
2016-09-18T03:38:34.595Z,19.06
2016-09-18T03:39:34.899Z,18.92
2016-09-18T03:40:34.579Z,18.96
2016-09-18T03:41:34.883Z,18.88
2016-09-18T03:42:34.537Z,18.88
2016-09-18T03:43:34.536Z,18.88
2016-09-18T03:44:34.843Z,19.16
2016-09-18T03:45:34.818Z,19.19
2016-09-18T03:46:34.500Z,19.38
2016-09-18T03:47:34.472Z,19.23
2016-09-18T03:48:34.135Z,19.22
2016-09-18T03:49:34.440Z,19.16
2016-09-18T03:50:34.426Z,19.3
2016-09-18T03:51:34.431Z,19.4
2016-09-18T03:52:34.404Z,19.48
2016-09-18T03:53:34.702Z,19.3
2016-09-18T03:54:34.382Z,19.07
2016-09-18T03:55:34.727Z,19
2016-09-18T03:56:34.028Z,19.15
2016-09-18T03:57:34.651Z,19.19
2016-09-18T03:58:34.326Z,19.31
2016-09-18T03:59:34.308Z,19.41
2016-09-18T04:00:34.310Z,19.67
2016-09-18T04:01:34.614Z,19.53
2016-09-18T04:02:34.257Z,19.48
2016-09-18T04:03:33.937Z,19.51
2016-09-18T04:04:34.253Z,19.4
2016-09-18T04:05:34.542Z,19.19
2016-09-18T04:06:34.535Z,19.16
2016-09-18T04:07:34.219Z,19.16
2016-09-18T04:08:34.506Z,19.26
2016-09-18T04:09:34.499Z,19.37
2016-09-18T04:10:34.482Z,19.41
2016-09-18T04:11:34.464Z,19.51
2016-09-18T04:12:34.579Z,19.51
2016-09-18T04:13:34.119Z,19.56
2016-09-18T04:14:34.416Z,19.48
2016-09-18T04:15:34.099Z,19.51
2016-09-18T04:16:34.388Z,19.55
2016-09-18T04:17:34.048Z,19.41
2016-09-18T04:18:34.062Z,19.52
2016-09-18T04:19:33.709Z,19.53
2016-09-18T04:20:34.345Z,19.46
2016-09-18T04:21:34.324Z,19.4
2016-09-18T04:22:33.767Z,19.52
2016-09-18T04:23:34.308Z,19.52
2016-09-18T04:24:34.313Z,19.52
2016-09-18T04:25:34.378Z,19.44
2016-09-18T04:26:34.263Z,19.44
2016-09-18T04:27:33.603Z,19.38
2016-09-18T04:28:33.972Z,19.52
2016-09-18T04:29:33.899Z,19.3
2016-09-18T04:30:34.259Z,19.37
2016-09-18T04:31:34.190Z,19.31
2016-09-18T04:32:33.908Z,19.36
2016-09-18T04:33:33.850Z,19.53
2016-09-18T04:34:34.238Z,19.83
2016-09-18T04:35:34.136Z,19.58
2016-09-18T04:36:34.124Z,19.61
2016-09-18T04:37:33.469Z,19.53
2016-09-18T04:38:33.507Z,19.53
2016-09-18T04:39:34.071Z,19.71
2016-09-18T04:40:33.748Z,19.61
2016-09-18T04:41:33.845Z,19.98
2016-09-18T04:42:34.039Z,19.73
2016-09-18T04:43:34.012Z,19.83
2016-09-18T04:44:33.689Z,19.66
2016-09-18T04:45:33.664Z,19.52
2016-09-18T04:46:33.342Z,19.36
2016-09-18T04:47:33.968Z,19.46
2016-09-18T04:48:33.312Z,19.37
2016-09-18T04:49:33.936Z,19.19
2016-09-18T04:50:33.917Z,19.19
2016-09-18T04:51:33.603Z,19.19
2016-09-18T04:52:33.908Z,19.31
2016-09-18T04:53:33.885Z,19.37
2016-09-18T04:54:33.866Z,19.53
2016-09-18T04:55:33.545Z,19.38
2016-09-18T04:56:33.192Z,19.43
2016-09-18T04:57:33.496Z,19.52
2016-09-18T04:58:33.819Z,19.52
2016-09-18T04:59:33.486Z,19.55
2016-09-18T05:00:33.790Z,19.52
2016-09-18T05:01:33.140Z,19.36
2016-09-18T05:02:33.452Z,19.58
2016-09-18T05:03:33.744Z,19.62
2016-09-18T05:04:33.722Z,19.7
2016-09-18T05:05:33.745Z,19.73
2016-09-18T05:06:33.386Z,19.56
2016-09-18T05:07:33.471Z,19.36
2016-09-18T05:08:33.359Z,19.31
2016-09-18T05:09:33.663Z,19.43
2016-09-18T05:10:33.645Z,19.43
2016-09-18T05:11:33.646Z,19.3
2016-09-18T05:12:33.285Z,19.41
2016-09-18T05:13:33.601Z,19.49
2016-09-18T05:14:33.259Z,19.81
2016-09-18T05:15:32.925Z,19.78
2016-09-18T05:16:33.254Z,19.73
2016-09-18T05:17:33.540Z,19.52
2016-09-18T05:18:33.207Z,19.46
2016-09-18T05:19:33.533Z,19.36
2016-09-18T05:20:33.246Z,19.51
2016-09-18T05:21:33.164Z,19.58
2016-09-18T05:22:33.475Z,19.69
2016-09-18T05:23:33.475Z,19.61
2016-09-18T05:24:33.140Z,19.61
2016-09-18T05:25:33.113Z,19.51
2016-09-18T05:26:33.120Z,19.78
2016-09-18T05:27:33.088Z,19.53
2016-09-18T05:28:32.759Z,19.22
2016-09-18T05:29:33.050Z,18.87
2016-09-18T05:30:33.095Z,18.67
2016-09-18T05:31:33.036Z,18.44
2016-09-18T05:32:33.016Z,18.38
2016-09-18T05:33:33.006Z,18.37
2016-09-18T05:34:33.315Z,18.29
2016-09-18T05:35:32.975Z,18.22
2016-09-18T05:36:33.007Z,18.1
2016-09-18T05:37:32.939Z,18.02
2016-09-18T05:38:32.940Z,17.95
2016-09-18T05:39:33.237Z,17.93
2016-09-18T05:40:33.236Z,17.93
2016-09-18T05:41:32.890Z,18
2016-09-18T05:42:33.206Z,18.05
2016-09-18T05:43:32.860Z,18.04
2016-09-18T05:44:32.845Z,18.12
2016-09-18T05:45:32.835Z,18.05
2016-09-18T05:46:33.127Z,17.96
2016-09-18T05:47:32.806Z,17.89
2016-09-18T05:48:33.117Z,17.98
2016-09-18T05:49:32.763Z,17.95
2016-09-18T05:50:32.763Z,17.87
2016-09-18T05:51:32.752Z,17.86
2016-09-18T05:52:33.069Z,17.9
2016-09-18T05:53:33.031Z,17.87
2016-09-18T05:54:32.708Z,17.89
2016-09-18T05:55:33.104Z,17.89
2016-09-18T05:56:32.982Z,17.87
2016-09-18T05:57:32.968Z,17.87
2016-09-18T05:58:32.641Z,17.96
2016-09-18T05:59:32.624Z,17.89
2016-09-18T06:00:32.936Z,17.98
2016-09-18T06:01:32.599Z,17.96
2016-09-18T06:02:32.906Z,17.98
2016-09-18T06:03:32.902Z,17.89
2016-09-18T06:04:32.889Z,17.87
2016-09-18T06:05:32.865Z,17.78
2016-09-18T06:06:32.545Z,17.65
2016-09-18T06:07:32.886Z,17.67
2016-09-18T06:08:32.516Z,17.54
2016-09-18T06:09:32.814Z,17.51
2016-09-18T06:10:32.161Z,17.51
2016-09-18T06:11:32.457Z,17.51
2016-09-18T06:12:32.776Z,17.67
2016-09-18T06:13:32.439Z,17.62
2016-09-18T06:14:32.735Z,17.64
2016-09-18T06:15:32.720Z,17.68
2016-09-18T06:16:32.703Z,17.67
2016-09-18T06:17:32.695Z,17.67
2016-09-18T06:18:32.675Z,17.68
2016-09-18T06:19:32.347Z,17.64
2016-09-18T06:20:32.324Z,17.55
2016-09-18T06:21:32.639Z,17.55
2016-09-18T06:22:32.603Z,17.54
2016-09-18T06:23:31.959Z,17.55
2016-09-18T06:24:32.269Z,17.58
2016-09-18T06:25:31.980Z,17.56
2016-09-18T06:26:32.550Z,17.54
2016-09-18T06:27:32.545Z,17.58
2016-09-18T06:28:32.536Z,17.56
2016-09-18T06:29:32.237Z,17.51
2016-09-18T06:30:32.495Z,17.67
2016-09-18T06:31:32.157Z,17.6
2016-09-18T06:32:32.503Z,17.64
2016-09-18T06:33:32.136Z,17.51
2016-09-18T06:34:32.435Z,17.44
2016-09-18T06:35:32.425Z,17.46
2016-09-18T06:36:32.081Z,17.56
2016-09-18T06:37:32.394Z,17.62
2016-09-18T06:38:32.381Z,17.67
2016-09-18T06:39:32.048Z,17.65
2016-09-18T06:40:32.034Z,17.68
2016-09-18T06:41:32.067Z,17.83
2016-09-18T06:42:32.005Z,17.68
2016-09-18T06:43:31.987Z,17.77
2016-09-18T06:44:31.974Z,17.68
2016-09-18T06:45:32.280Z,17.67
2016-09-18T06:46:31.686Z,17.64
2016-09-18T06:47:31.935Z,17.58
2016-09-18T06:48:32.221Z,17.42
2016-09-18T06:49:32.239Z,17.39
2016-09-18T06:50:31.569Z,17.4
2016-09-18T06:51:31.868Z,17.46
2016-09-18T06:52:32.166Z,17.4
2016-09-18T06:53:31.527Z,17.58
2016-09-18T06:54:31.841Z,17.67
2016-09-18T06:55:32.139Z,17.6
2016-09-18T06:56:32.113Z,17.64
2016-09-18T06:57:32.107Z,17.56
2016-09-18T06:58:31.770Z,17.67
2016-09-18T06:59:31.751Z,17.65
2016-09-18T07:00:32.062Z,17.72
2016-09-18T07:01:31.718Z,17.82
2016-09-18T07:02:31.720Z,17.78
2016-09-18T07:03:31.725Z,17.67
2016-09-18T07:04:32.014Z,17.54
2016-09-18T07:05:31.987Z,17.67
2016-09-18T07:06:31.347Z,17.68
2016-09-18T07:07:31.956Z,17.64
2016-09-18T07:08:31.645Z,17.68
2016-09-18T07:09:31.276Z,17.68
2016-09-18T07:10:31.599Z,17.7
2016-09-18T07:11:31.257Z,17.64
2016-09-18T07:12:31.566Z,17.64
2016-09-18T07:13:31.556Z,17.48
2016-09-18T07:14:31.525Z,17.46
2016-09-18T07:15:31.843Z,17.44
2016-09-18T07:16:31.532Z,17.44
2016-09-18T07:17:31.971Z,17.46
2016-09-18T07:18:31.475Z,17.46
2016-09-18T07:19:31.456Z,17.64
2016-09-18T07:20:31.444Z,17.8
2016-09-18T07:21:31.455Z,17.78
2016-09-18T07:22:31.749Z,17.92
2016-09-18T07:23:31.846Z,17.92
2016-09-18T07:24:31.086Z,17.8
2016-09-18T07:25:31.701Z,17.78
2016-09-18T07:26:31.677Z,17.85
2016-09-18T07:27:31.348Z,17.85
2016-09-18T07:28:31.322Z,17.78
2016-09-18T07:29:31.317Z,17.67
2016-09-18T07:30:30.988Z,17.78
2016-09-18T07:31:31.607Z,17.82
2016-09-18T07:32:30.949Z,17.78
2016-09-18T07:33:31.298Z,17.86
2016-09-18T07:34:31.247Z,17.8
2016-09-18T07:35:31.566Z,17.75
2016-09-18T07:36:31.216Z,17.85
2016-09-18T07:37:30.888Z,17.9
2016-09-18T07:38:31.509Z,17.92
2016-09-18T07:39:31.217Z,18.01
2016-09-18T07:40:31.489Z,17.87
2016-09-18T07:41:31.158Z,17.89
2016-09-18T07:42:31.142Z,17.89
2016-09-18T07:43:31.117Z,17.96
2016-09-18T07:44:31.417Z,17.87
2016-09-18T07:45:31.397Z,17.75
2016-09-18T07:46:31.072Z,17.7
2016-09-18T07:47:31.046Z,17.82
2016-09-18T07:48:31.046Z,17.86
2016-09-18T07:49:30.718Z,17.83
2016-09-18T07:50:31.328Z,17.7
2016-09-18T07:51:31.306Z,17.6
2016-09-18T07:52:30.986Z,17.67
2016-09-18T07:53:30.971Z,17.74
2016-09-18T07:54:31.266Z,17.65
2016-09-18T07:55:30.935Z,17.6
2016-09-18T07:56:31.325Z,17.6
2016-09-18T07:57:30.915Z,17.68
2016-09-18T07:58:31.229Z,17.78
2016-09-18T07:59:30.887Z,17.67
2016-09-18T08:00:30.865Z,17.67
2016-09-18T08:01:31.187Z,17.67
2016-09-18T08:02:31.168Z,17.72
2016-09-18T08:03:31.152Z,17.68
2016-09-18T08:04:31.122Z,17.67
2016-09-18T08:05:30.797Z,17.64
2016-09-18T08:06:31.104Z,17.54
2016-09-18T08:07:31.107Z,17.54
2016-09-18T08:08:31.076Z,17.48
2016-09-18T08:09:30.742Z,17.44
2016-09-18T08:10:31.034Z,17.42
2016-09-18T08:11:30.386Z,17.42
2016-09-18T08:12:30.715Z,17.46
2016-09-18T08:13:30.686Z,17.45
2016-09-18T08:14:30.658Z,17.45
2016-09-18T08:15:30.967Z,17.52
2016-09-18T08:16:30.956Z,17.72
2016-09-18T08:17:30.949Z,17.96
2016-09-18T08:18:30.937Z,18.1
2016-09-18T08:19:30.626Z,18.12
2016-09-18T08:20:30.900Z,18
2016-09-18T08:21:30.877Z,18.04
2016-09-18T08:22:30.233Z,18.11
2016-09-18T08:23:30.534Z,18.14
2016-09-18T08:24:30.522Z,18.25
2016-09-18T08:25:30.826Z,18.47
2016-09-18T08:26:30.496Z,18.42
2016-09-18T08:27:30.479Z,18.55
2016-09-18T08:28:30.790Z,18.41
2016-09-18T08:29:30.128Z,18.5
2016-09-18T08:30:30.741Z,18.66
2016-09-18T08:31:30.723Z,18.75
2016-09-18T08:32:30.721Z,18.96
2016-09-18T08:33:30.716Z,20.04
2016-09-18T08:34:30.390Z,21.03
2016-09-18T08:35:30.035Z,21.74
2016-09-18T08:36:30.367Z,21.8
2016-09-18T08:37:30.367Z,21.79
2016-09-18T08:38:30.650Z,22.37
2016-09-18T08:39:30.314Z,23.06
2016-09-18T08:40:30.626Z,23.03
2016-09-18T08:41:30.615Z,23.13
2016-09-18T08:42:30.282Z,23.03
2016-09-18T08:43:30.276Z,22.8
2016-09-18T08:44:30.266Z,22.51
2016-09-18T08:45:30.562Z,22.15
2016-09-18T08:46:29.937Z,21.7
2016-09-18T08:47:29.906Z,21.58
2016-09-18T08:48:30.552Z,21.49
2016-09-18T08:49:29.897Z,21.31
2016-09-18T08:50:30.520Z,21.31
2016-09-18T08:51:30.193Z,21.25
2016-09-18T08:52:30.518Z,21.26
2016-09-18T08:53:30.195Z,21.4
2016-09-18T08:54:30.466Z,21.49
2016-09-18T08:55:30.157Z,21.46
2016-09-18T08:56:30.466Z,21.65
2016-09-18T08:57:30.567Z,22.22
2016-09-18T08:58:30.124Z,22.7
2016-09-18T08:59:30.536Z,22.8
2016-09-18T09:00:29.776Z,22.57
2016-09-18T09:01:29.868Z,22.32
2016-09-18T09:02:30.085Z,22.51
2016-09-18T09:03:30.095Z,22.8
2016-09-18T09:04:30.371Z,22.54
2016-09-18T09:05:30.074Z,22.73
2016-09-18T09:06:30.043Z,22.84
2016-09-18T09:07:30.086Z,22.94
2016-09-18T09:08:30.030Z,23.21
2016-09-18T09:09:30.038Z,23.35
2016-09-18T09:10:30.012Z,23.28
2016-09-18T09:11:30.050Z,23.12
2016-09-18T09:12:30.303Z,22.97
2016-09-18T09:13:30.036Z,22.92
2016-09-18T09:14:29.975Z,22.67
2016-09-18T09:15:29.958Z,22.45
2016-09-18T09:16:29.955Z,22.21
2016-09-18T09:17:29.945Z,22.32
2016-09-18T09:18:30.270Z,22.4
2016-09-18T09:19:29.922Z,22.54
2016-09-18T09:20:29.618Z,22.42
2016-09-18T09:21:29.905Z,22.82
2016-09-18T09:22:29.995Z,23.29
2016-09-18T09:23:30.210Z,23.52
2016-09-18T09:24:29.570Z,24.14
2016-09-18T09:25:30.212Z,24.46
2016-09-18T09:26:30.181Z,24.32
2016-09-18T09:27:29.918Z,23.95
2016-09-18T09:28:29.855Z,23.47
2016-09-18T09:29:30.169Z,23.25
2016-09-18T09:30:29.855Z,23.04
2016-09-18T09:31:30.143Z,23.24
2016-09-18T09:32:29.820Z,22.97
2016-09-18T09:33:29.496Z,22.59
2016-09-18T09:34:29.845Z,22.37
2016-09-18T09:35:30.135Z,22.35
2016-09-18T09:36:29.782Z,22.3
2016-09-18T09:37:30.213Z,22.37
2016-09-18T09:38:30.085Z,22.27
2016-09-18T09:39:30.137Z,22.11
2016-09-18T09:40:29.415Z,22
2016-09-18T09:41:29.728Z,21.95
2016-09-18T09:42:29.539Z,21.97
2016-09-18T09:43:29.712Z,21.79
2016-09-18T09:44:30.049Z,21.68
2016-09-18T09:45:30.024Z,21.4
2016-09-18T09:46:29.694Z,21.21
2016-09-18T09:47:30.025Z,21.31
2016-09-18T09:48:29.715Z,21.47
2016-09-18T09:49:29.656Z,21.54
2016-09-18T09:50:29.985Z,21.68
2016-09-18T09:51:29.631Z,21.74
2016-09-18T09:52:29.637Z,21.86
2016-09-18T09:53:29.613Z,21.88
2016-09-18T09:54:29.926Z,21.97
2016-09-18T09:55:29.641Z,22
2016-09-18T09:56:29.580Z,22.06
2016-09-18T09:57:29.903Z,21.84
2016-09-18T09:58:29.247Z,22
2016-09-18T09:59:29.566Z,22.43
2016-09-18T10:00:29.866Z,23.25
2016-09-18T10:01:29.936Z,23.99
2016-09-18T10:02:29.517Z,24.59
2016-09-18T10:03:29.548Z,24.75
2016-09-18T10:04:29.827Z,24.77
2016-09-18T10:05:29.807Z,25.03
2016-09-18T10:06:29.816Z,24.77
2016-09-18T10:07:29.838Z,24.47
2016-09-18T10:08:29.528Z,24.61
2016-09-18T10:09:29.143Z,24.69
2016-09-18T10:10:29.776Z,24.78
2016-09-18T10:11:29.449Z,24.8
2016-09-18T10:12:29.440Z,25.29
2016-09-18T10:13:29.745Z,25.08
2016-09-18T10:14:29.428Z,25.11
2016-09-18T10:15:29.096Z,24.92
2016-09-18T10:16:29.404Z,25.12
2016-09-18T10:17:29.402Z,25.56
2016-09-18T10:18:29.073Z,26.19
2016-09-18T10:19:29.715Z,26.56
2016-09-18T10:20:29.687Z,26.57
2016-09-18T10:21:29.368Z,26.37
2016-09-18T10:22:29.375Z,25.76
2016-09-18T10:23:29.683Z,25.26
2016-09-18T10:24:29.335Z,25.08
2016-09-18T10:25:29.326Z,24.95
2016-09-18T10:26:29.009Z,24.85
2016-09-18T10:27:28.999Z,24.9
2016-09-18T10:28:29.767Z,25.07
2016-09-18T10:29:29.316Z,24.7
2016-09-18T10:30:29.627Z,24.57
2016-09-18T10:31:29.600Z,24.77
2016-09-18T10:32:29.286Z,24.78
2016-09-18T10:33:29.266Z,24.74
2016-09-18T10:34:28.950Z,24.78
2016-09-18T10:35:29.573Z,24.59
2016-09-18T10:36:29.242Z,24.47
2016-09-18T10:37:29.250Z,24.7
2016-09-18T10:38:29.228Z,24.71
2016-09-18T10:39:29.226Z,24.85
2016-09-18T10:40:29.538Z,24.92
2016-09-18T10:41:29.207Z,24.81
2016-09-18T10:42:29.535Z,24.77
2016-09-18T10:43:29.197Z,24.77
2016-09-18T10:44:29.202Z,24.75
2016-09-18T10:45:29.175Z,24.59
2016-09-18T10:46:29.507Z,24.29
2016-09-18T10:47:29.166Z,24.21
2016-09-18T10:48:29.487Z,24.15
2016-09-18T10:49:29.483Z,24.02
2016-09-18T10:50:29.466Z,23.97
2016-09-18T10:51:29.145Z,24.15
2016-09-18T10:52:29.124Z,23.96
2016-09-18T10:53:29.233Z,24.27
2016-09-18T10:54:28.784Z,24.87
2016-09-18T10:55:29.148Z,25.33
2016-09-18T10:56:29.085Z,25.81
2016-09-18T10:57:29.085Z,26.24
2016-09-18T10:58:29.607Z,26.51
2016-09-18T10:59:29.178Z,26.78
2016-09-18T11:00:29.077Z,26.64
2016-09-18T11:01:29.384Z,26.85
2016-09-18T11:02:28.718Z,26.37
2016-09-18T11:03:29.374Z,26.6
2016-09-18T11:04:28.701Z,26.82
2016-09-18T11:05:29.057Z,27.18
2016-09-18T11:06:29.313Z,27.44
2016-09-18T11:07:29.323Z,27.78
2016-09-18T11:08:29.061Z,28.01
2016-09-18T11:09:29.334Z,28.19
2016-09-18T11:10:28.992Z,27.78
2016-09-18T11:11:29.085Z,27.94
2016-09-18T11:12:28.823Z,27.21
2016-09-18T11:13:29.465Z,26.75
2016-09-18T11:14:29.084Z,26.15
2016-09-18T11:15:29.596Z,25.66
2016-09-18T11:16:29.574Z,25.32
2016-09-18T11:17:29.088Z,25.67
2016-09-18T11:18:29.223Z,25.34
2016-09-18T11:19:29.285Z,25.03
2016-09-18T11:20:29.434Z,24.96
2016-09-18T11:21:29.455Z,24.81
2016-09-18T11:22:29.473Z,24.82
2016-09-18T11:23:28.792Z,24.66
2016-09-18T11:24:29.155Z,24.64
2016-09-18T11:25:29.137Z,24.27
2016-09-18T11:26:29.208Z,24.12
2016-09-18T11:27:29.663Z,24.7
2016-09-18T11:28:29.313Z,25.1
2016-09-18T11:29:29.223Z,25.81
2016-09-18T11:30:28.518Z,26.3
2016-09-18T11:31:29.153Z,26.66
2016-09-18T11:32:28.835Z,26.82
2016-09-18T11:33:29.156Z,27.07
2016-09-18T11:34:29.135Z,27.44
2016-09-18T11:35:29.152Z,27.93
2016-09-18T11:36:29.087Z,27.78
2016-09-18T11:37:29.076Z,27.57
2016-09-18T11:38:29.060Z,27.31
2016-09-18T11:39:29.051Z,27.06
2016-09-18T11:40:29.041Z,26.82
2016-09-18T11:41:28.714Z,26.3
2016-09-18T11:42:29.018Z,26.15
2016-09-18T11:43:28.691Z,25.84
2016-09-18T11:44:28.361Z,25.82
2016-09-18T11:45:28.669Z,25.66
2016-09-18T11:46:28.364Z,25.45
2016-09-18T11:47:28.665Z,25.26
2016-09-18T11:48:28.983Z,25.3
2016-09-18T11:49:28.654Z,25.15
2016-09-18T11:50:28.634Z,25.03
2016-09-18T11:51:28.939Z,25.55
2016-09-18T11:52:28.604Z,25.74
2016-09-18T11:53:28.620Z,26.33
2016-09-18T11:54:28.600Z,26.57
2016-09-18T11:55:28.582Z,26.96
2016-09-18T11:56:28.592Z,27.48
2016-09-18T11:57:28.591Z,27.87
2016-09-18T11:58:28.574Z,27.93
2016-09-18T11:59:28.554Z,28.24
2016-09-18T12:00:28.241Z,28.34
2016-09-18T12:01:28.863Z,28.56
2016-09-18T12:02:28.205Z,28.7
2016-09-18T12:03:28.526Z,28.8
2016-09-18T12:04:28.193Z,29.03
2016-09-18T12:05:28.504Z,29.3
2016-09-18T12:06:28.504Z,29.43
2016-09-18T12:07:28.831Z,28.79
2016-09-18T12:08:28.823Z,28.1
2016-09-18T12:09:28.497Z,28.21
2016-09-18T12:10:28.472Z,27.86
2016-09-18T12:11:28.465Z,27.16
2016-09-18T12:12:28.458Z,26.76
2016-09-18T12:13:28.763Z,26.24
2016-09-18T12:14:28.754Z,25.82
2016-09-18T12:15:28.432Z,25.55
2016-09-18T12:16:28.741Z,25.29
2016-09-18T12:17:28.415Z,25.07
2016-09-18T12:18:28.737Z,25
2016-09-18T12:19:28.719Z,24.89
2016-09-18T12:20:28.397Z,24.74
2016-09-18T12:21:28.703Z,24.71
2016-09-18T12:22:28.373Z,25.22
2016-09-18T12:23:28.368Z,25.76
2016-09-18T12:24:28.669Z,26.08
2016-09-18T12:25:28.340Z,26.57
2016-09-18T12:26:28.394Z,27.15
2016-09-18T12:27:28.661Z,27.64
2016-09-18T12:28:27.998Z,27.78
2016-09-18T12:29:28.634Z,28
2016-09-18T12:30:27.981Z,28.27
2016-09-18T12:31:28.615Z,28.12
2016-09-18T12:32:28.289Z,28.15
2016-09-18T12:33:27.977Z,28.1
2016-09-18T12:34:28.592Z,27.64
2016-09-18T12:35:28.600Z,27.75
2016-09-18T12:36:28.583Z,27.84
2016-09-18T12:37:28.569Z,27.69
2016-09-18T12:38:28.558Z,27.22
2016-09-18T12:39:28.235Z,26.63
2016-09-18T12:40:28.547Z,26.82
2016-09-18T12:41:28.547Z,26.64
2016-09-18T12:42:28.534Z,26.86
2016-09-18T12:43:28.203Z,27.38
2016-09-18T12:44:28.283Z,26.79
2016-09-18T12:45:28.167Z,27.37
2016-09-18T12:46:28.227Z,27.71
2016-09-18T12:47:28.165Z,27.76
2016-09-18T12:48:28.166Z,27.55
2016-09-18T12:49:28.163Z,27.13
2016-09-18T12:50:28.476Z,26.76
2016-09-18T12:51:28.464Z,26.41
2016-09-18T12:52:28.148Z,25.92
2016-09-18T12:53:28.122Z,25.69
2016-09-18T12:54:28.112Z,25.39
2016-09-18T12:55:28.435Z,25.02